createdAt,value
2022-10-01T00:02:16.733Z,100.00
2022-10-01T00:04:45.853Z,100.00
2022-10-01T00:07:16.146Z,100.00
2022-10-01T00:09:45.288Z,100.00
2022-10-01T00:12:16.861Z,100.00
2022-10-01T00:14:46.169Z,100.00
2022-10-01T00:17:14.898Z,100.00
2022-10-01T00:19:44.308Z,100.00
2022-10-01T00:22:13.175Z,100.00
2022-10-01T00:24:42.334Z,100.00
2022-10-01T00:27:11.691Z,100.00
2022-10-01T00:29:42.321Z,100.00
2022-10-01T00:32:11.275Z,100.00
2022-10-01T00:34:40.085Z,100.00
2022-10-01T00:37:11.476Z,100.00
2022-10-01T00:39:40.369Z,100.00
2022-10-01T00:42:21.926Z,100.00
2022-10-01T00:44:52.118Z,100.00
2022-10-01T00:47:35.461Z,100.00
2022-10-01T00:50:13.247Z,100.00
2022-10-01T00:52:43.285Z,100.00
2022-10-01T00:55:21.750Z,100.00
2022-10-01T00:57:51.842Z,100.00
2022-10-01T01:00:21.209Z,100.00
2022-10-01T01:02:51.895Z,100.00
2022-10-01T01:05:21.390Z,100.00
2022-10-01T01:07:54.782Z,100.00
2022-10-01T01:10:36.073Z,100.00
2022-10-01T01:13:21.518Z,100.00
2022-10-01T01:15:51.375Z,100.00
2022-10-01T01:18:28.636Z,100.00
2022-10-01T01:21:07.929Z,100.00
2022-10-01T01:23:54.082Z,100.00
2022-10-01T01:26:43.310Z,100.00
2022-10-01T01:29:32.328Z,100.00
2022-10-01T01:32:14.003Z,100.00
2022-10-01T01:34:48.437Z,100.00
2022-10-01T01:37:21.917Z,100.00
2022-10-01T01:39:54.909Z,100.00
2022-10-01T01:42:38.166Z,100.00
2022-10-01T01:45:14.733Z,100.00
2022-10-01T01:47:45.343Z,100.00
2022-10-01T01:50:17.736Z,100.00
2022-10-01T01:52:46.891Z,100.00
2022-10-01T01:55:15.862Z,100.00
2022-10-01T01:57:45.951Z,100.00
2022-10-01T02:00:15.648Z,100.00
2022-10-01T02:02:51.170Z,100.00
2022-10-01T02:05:25.495Z,100.00
2022-10-01T02:08:14.519Z,100.00
2022-10-01T02:10:58.728Z,100.00
2022-10-01T02:13:48.161Z,100.00
2022-10-01T02:16:31.524Z,100.00
2022-10-01T02:19:22.019Z,100.00
2022-10-01T02:22:00.875Z,100.00
2022-10-01T02:24:52.156Z,100.00
2022-10-01T02:27:41.601Z,100.00
2022-10-01T02:30:12.870Z,100.00
2022-10-01T02:32:45.373Z,100.00
2022-10-01T02:35:19.290Z,100.00
2022-10-01T02:37:52.593Z,100.00
2022-10-01T02:40:27.319Z,100.00
2022-10-01T02:43:08.342Z,99.42
2022-10-01T02:45:41.347Z,93.31
2022-10-01T02:48:13.205Z,95.07
2022-10-01T02:51:03.572Z,91.42
2022-10-01T02:53:42.190Z,88.41
2022-10-01T02:56:16.573Z,83.38
2022-10-01T02:58:46.736Z,87.64
2022-10-01T03:01:15.937Z,94.15
2022-10-01T03:03:45.211Z,84.29
2022-10-01T03:06:14.005Z,86.10
2022-10-01T03:08:42.940Z,94.94
2022-10-01T03:11:12.161Z,97.84
2022-10-01T03:13:41.138Z,99.99
2022-10-01T03:16:09.990Z,98.37
2022-10-01T03:18:39.235Z,94.15
2022-10-01T03:21:08.060Z,92.49
2022-10-01T03:23:37.312Z,91.40
2022-10-01T03:26:06.363Z,96.20
2022-10-01T03:28:35.668Z,100.00
2022-10-01T03:31:12.255Z,100.00
2022-10-01T03:33:42.114Z,100.00
2022-10-01T03:36:10.920Z,97.49
2022-10-01T03:38:40.266Z,96.65
2022-10-01T03:41:09.422Z,100.00
2022-10-01T03:43:38.578Z,89.68
2022-10-01T03:46:07.683Z,90.54
2022-10-01T03:48:37.020Z,92.18
2022-10-01T03:51:06.629Z,94.71
2022-10-01T03:53:35.789Z,94.76
2022-10-01T03:56:05.748Z,96.30
2022-10-01T03:58:35.216Z,93.93
2022-10-01T04:01:04.020Z,92.91
2022-10-01T04:03:33.403Z,99.74
2022-10-01T04:06:02.502Z,100.00
2022-10-01T04:08:31.929Z,100.00
2022-10-01T04:11:01.974Z,100.00
2022-10-01T04:13:31.174Z,100.00
2022-10-01T04:16:00.338Z,100.00
2022-10-01T04:18:29.536Z,100.00
2022-10-01T04:20:59.136Z,100.00
2022-10-01T04:23:28.688Z,100.00
2022-10-01T04:26:04.120Z,100.00
2022-10-01T04:28:33.471Z,100.00
2022-10-01T04:31:22.889Z,100.00
2022-10-01T04:33:58.546Z,94.36
2022-10-01T04:36:29.903Z,100.00
2022-10-01T04:39:02.604Z,100.00
2022-10-01T04:41:33.556Z,99.29
2022-10-01T04:44:03.057Z,99.68
2022-10-01T04:46:31.939Z,95.72
2022-10-01T04:49:02.214Z,99.15
2022-10-01T04:51:31.646Z,100.00
2022-10-01T04:54:00.554Z,100.00
2022-10-01T04:56:29.827Z,100.00
2022-10-01T04:58:58.712Z,100.00
2022-10-01T05:01:27.852Z,100.00
2022-10-01T05:03:56.939Z,100.00
2022-10-01T05:06:26.221Z,100.00
2022-10-01T05:08:55.037Z,100.00
2022-10-01T05:11:24.017Z,100.00
2022-10-01T05:13:52.774Z,100.00
2022-10-01T05:16:21.874Z,100.00
2022-10-01T05:18:50.790Z,100.00
2022-10-01T05:21:20.492Z,100.00
2022-10-01T05:23:49.374Z,100.00
2022-10-01T05:26:18.585Z,100.00
2022-10-01T05:28:47.431Z,100.00
2022-10-01T05:31:16.951Z,100.00
2022-10-01T05:33:46.103Z,100.00
2022-10-01T05:36:15.230Z,100.00
2022-10-01T05:38:44.027Z,100.00
2022-10-01T05:41:13.152Z,100.00
2022-10-01T05:43:42.041Z,100.00
2022-10-01T05:46:11.452Z,100.00
2022-10-01T05:48:40.578Z,93.13
2022-10-01T05:51:09.500Z,97.58
2022-10-01T05:53:39.292Z,100.00
2022-10-01T05:56:09.901Z,100.00
2022-10-01T05:58:38.881Z,100.00
2022-10-01T06:01:07.760Z,100.00
2022-10-01T06:03:37.471Z,100.00
2022-10-01T06:06:07.193Z,100.00
2022-10-01T06:08:38.705Z,100.00
2022-10-01T06:11:08.151Z,100.00
2022-10-01T06:13:37.495Z,86.07
2022-10-01T06:16:07.131Z,85.75
2022-10-01T06:18:36.648Z,84.76
2022-10-01T06:21:05.823Z,82.14
2022-10-01T06:23:35.618Z,91.02
2022-10-01T06:26:06.906Z,92.43
2022-10-01T06:28:36.145Z,96.12
2022-10-01T06:31:05.513Z,100.00
2022-10-01T06:33:34.728Z,100.00
2022-10-01T06:36:06.086Z,100.00
2022-10-01T06:38:35.250Z,100.00
2022-10-01T06:41:07.209Z,100.00
2022-10-01T06:43:36.369Z,100.00
2022-10-01T06:46:06.617Z,100.00
2022-10-01T06:48:37.458Z,100.00
2022-10-01T06:51:06.910Z,100.00
2022-10-01T06:53:36.313Z,100.00
2022-10-01T06:56:08.087Z,92.47
2022-10-01T06:58:38.311Z,83.27
2022-10-01T07:01:07.468Z,91.56
2022-10-01T07:03:36.815Z,85.77
2022-10-01T07:06:08.882Z,84.10
2022-10-01T07:08:38.129Z,91.70
2022-10-01T07:11:06.969Z,88.65
2022-10-01T07:13:36.049Z,91.14
2022-10-01T07:16:05.869Z,100.00
2022-10-01T07:18:34.941Z,100.00
2022-10-01T07:21:03.739Z,100.00
2022-10-01T07:23:32.822Z,100.00
2022-10-01T07:26:01.789Z,100.00
2022-10-01T07:28:30.794Z,100.00
2022-10-01T07:31:02.921Z,100.00
2022-10-01T07:33:32.149Z,100.00
2022-10-01T07:36:06.929Z,100.00
2022-10-01T07:38:36.650Z,100.00
2022-10-01T07:41:05.772Z,100.00
2022-10-01T07:43:37.189Z,100.00
2022-10-01T07:46:08.073Z,100.00
2022-10-01T07:48:37.162Z,100.00
2022-10-01T07:51:06.059Z,93.16
2022-10-01T07:53:35.418Z,99.58
2022-10-01T07:56:05.449Z,100.00
2022-10-01T07:58:35.471Z,100.00
2022-10-01T08:01:07.504Z,100.00
2022-10-01T08:03:37.291Z,96.98
2022-10-01T08:06:07.838Z,100.00
2022-10-01T08:08:37.852Z,100.00
2022-10-01T08:11:09.711Z,100.00
2022-10-01T08:13:39.225Z,100.00
2022-10-01T08:16:10.730Z,100.00
2022-10-01T08:18:41.951Z,100.00
2022-10-01T08:21:11.694Z,98.88
2022-10-01T08:23:40.929Z,89.83
2022-10-01T08:26:10.069Z,100.00
2022-10-01T08:28:38.959Z,74.38
2022-10-01T08:31:08.503Z,73.32
2022-10-01T08:33:40.006Z,80.12
2022-10-01T08:36:09.599Z,95.15
2022-10-01T08:38:41.153Z,100.00
2022-10-01T08:41:35.809Z,100.00
2022-10-01T08:44:08.629Z,98.83
2022-10-01T08:46:38.947Z,91.29
2022-10-01T08:49:46.327Z,82.68
2022-10-01T08:52:29.651Z,75.55
2022-10-01T08:55:11.945Z,75.68
2022-10-01T08:57:52.911Z,81.51
2022-10-01T09:00:23.503Z,87.21
2022-10-01T09:03:16.153Z,87.33
2022-10-01T09:06:03.826Z,73.74
2022-10-01T09:08:52.083Z,70.80
2022-10-01T09:11:40.104Z,66.12
2022-10-01T09:14:30.198Z,84.99
2022-10-01T09:17:25.023Z,78.52
2022-10-01T09:20:26.985Z,80.10
2022-10-01T09:23:08.223Z,76.77
2022-10-01T09:25:40.223Z,81.89
2022-10-01T09:28:17.737Z,83.95
2022-10-01T09:31:01.857Z,80.98
2022-10-01T09:33:38.092Z,74.96
2022-10-01T09:36:19.664Z,66.78
2022-10-01T09:39:11.699Z,71.85
2022-10-01T09:41:41.463Z,68.88
2022-10-01T09:44:19.108Z,58.93
2022-10-01T09:46:48.892Z,55.12
2022-10-01T09:49:34.853Z,48.87
2022-10-01T09:52:29.630Z,58.23
2022-10-01T09:55:22.920Z,54.35
2022-10-01T09:58:18.751Z,54.89
2022-10-01T10:00:52.764Z,51.55
2022-10-01T10:03:31.886Z,49.24
2022-10-01T10:06:01.822Z,55.35
2022-10-01T10:08:38.031Z,58.51
2022-10-01T10:11:12.439Z,56.49
2022-10-01T10:13:50.605Z,58.45
2022-10-01T10:16:27.362Z,48.64
2022-10-01T10:19:00.502Z,46.58
2022-10-01T10:21:33.323Z,47.32
2022-10-01T10:24:05.395Z,50.47
2022-10-01T10:26:40.043Z,50.17
2022-10-01T10:29:32.021Z,48.24
2022-10-01T10:32:06.063Z,50.34
2022-10-01T10:34:42.130Z,51.83
2022-10-01T10:37:19.251Z,47.45
2022-10-01T10:39:52.392Z,45.32
2022-10-01T10:42:24.543Z,45.84
2022-10-01T10:44:56.434Z,41.67
2022-10-01T10:47:31.744Z,47.15
2022-10-01T10:50:06.944Z,47.31
2022-10-01T10:52:39.996Z,55.05
2022-10-01T10:55:32.161Z,60.85
2022-10-01T10:58:16.436Z,58.44
2022-10-01T11:00:50.827Z,60.53
2022-10-01T11:03:25.503Z,60.54
2022-10-01T11:05:57.360Z,60.15
2022-10-01T11:08:30.747Z,60.73
2022-10-01T11:11:25.455Z,62.00
2022-10-01T11:14:31.992Z,60.42
2022-10-01T11:17:25.751Z,62.07
2022-10-01T11:20:10.736Z,64.72
2022-10-01T11:23:15.741Z,68.45
2022-10-01T11:25:54.471Z,71.37
2022-10-01T11:28:35.348Z,74.62
2022-10-01T11:31:41.723Z,74.54
2022-10-01T11:34:38.758Z,79.51
2022-10-01T11:37:45.927Z,82.63
2022-10-01T11:40:26.091Z,86.53
2022-10-01T11:43:10.523Z,96.01
2022-10-01T11:45:47.451Z,98.89
2022-10-01T11:48:45.585Z,100.00
2022-10-01T11:51:22.046Z,100.00
2022-10-01T11:53:56.630Z,100.00
2022-10-01T11:57:00.737Z,100.00
2022-10-01T11:59:42.785Z,100.00
2022-10-01T12:02:35.537Z,100.00
2022-10-01T12:05:18.095Z,100.00
2022-10-01T12:08:13.385Z,100.00
2022-10-01T12:10:51.074Z,100.00
2022-10-01T12:13:34.346Z,100.00
2022-10-01T12:16:42.035Z,100.00
2022-10-01T12:19:17.251Z,100.00
2022-10-01T12:21:56.137Z,100.00
2022-10-01T12:24:40.274Z,100.00
2022-10-01T12:27:28.150Z,100.00
2022-10-01T12:30:09.733Z,100.00
2022-10-01T12:33:35.240Z,100.00
2022-10-01T12:36:20.711Z,100.00
2022-10-01T12:39:05.191Z,100.00
2022-10-01T12:42:16.756Z,100.00
2022-10-01T12:45:25.244Z,100.00
2022-10-01T12:48:16.694Z,100.00
2022-10-01T12:51:18.630Z,100.00
2022-10-01T12:54:13.539Z,100.00
2022-10-01T12:56:52.712Z,100.00
2022-10-01T12:59:31.094Z,100.00
2022-10-01T13:02:18.499Z,100.00
2022-10-01T13:05:08.981Z,100.00
2022-10-01T13:07:50.634Z,100.00
2022-10-01T13:10:41.450Z,100.00
2022-10-01T13:13:23.858Z,100.00
2022-10-01T13:16:04.508Z,100.00
2022-10-01T13:19:00.813Z,100.00
2022-10-01T13:21:35.938Z,100.00
2022-10-01T13:24:13.820Z,100.00
2022-10-01T13:26:49.153Z,100.00
2022-10-01T13:29:47.706Z,100.00
2022-10-01T13:32:28.120Z,100.00
2022-10-01T13:35:00.392Z,100.00
2022-10-01T13:37:39.907Z,100.00
2022-10-01T13:40:42.526Z,100.00
2022-10-01T13:43:24.658Z,100.00
2022-10-01T13:45:57.229Z,100.00
2022-10-01T13:48:38.070Z,100.00
2022-10-01T13:51:14.594Z,100.00
2022-10-01T13:53:43.676Z,100.00
2022-10-01T13:56:16.426Z,100.00
2022-10-01T13:58:47.142Z,100.00
2022-10-01T14:01:24.210Z,100.00
2022-10-01T14:04:22.943Z,100.00
2022-10-01T14:07:32.075Z,100.00
2022-10-01T14:10:03.583Z,100.00
2022-10-01T14:12:53.392Z,100.00
2022-10-01T14:15:40.182Z,100.00
2022-10-01T14:18:22.437Z,100.00
2022-10-01T14:21:19.179Z,100.00
2022-10-01T14:24:06.399Z,100.00
2022-10-01T14:26:52.095Z,100.00
2022-10-01T14:29:47.116Z,100.00
2022-10-01T14:32:49.866Z,100.00
2022-10-01T14:35:36.635Z,100.00
2022-10-01T14:38:13.499Z,100.00
2022-10-01T14:40:48.967Z,100.00
2022-10-01T14:43:30.310Z,100.00
2022-10-01T14:46:08.041Z,100.00
2022-10-01T14:48:41.791Z,100.00
2022-10-01T14:51:29.881Z,100.00
2022-10-01T14:54:01.449Z,100.00
2022-10-01T14:56:31.153Z,100.00
2022-10-01T14:59:04.213Z,100.00
2022-10-01T15:01:33.541Z,100.00
2022-10-01T15:04:02.903Z,100.00
2022-10-01T15:06:42.375Z,100.00
2022-10-01T15:09:19.540Z,100.00
2022-10-01T15:11:52.692Z,100.00
2022-10-01T15:14:25.549Z,100.00
2022-10-01T15:16:54.950Z,100.00
2022-10-01T15:19:24.981Z,100.00
2022-10-01T15:22:03.169Z,100.00
2022-10-01T15:24:47.852Z,100.00
2022-10-01T15:27:21.609Z,100.00
2022-10-01T15:29:57.576Z,100.00
2022-10-01T15:32:29.430Z,100.00
2022-10-01T15:35:03.270Z,100.00
2022-10-01T15:37:37.740Z,100.00
2022-10-01T15:40:21.843Z,100.00
2022-10-01T15:43:13.983Z,100.00
2022-10-01T15:45:43.375Z,100.00
2022-10-01T15:48:31.399Z,100.00
2022-10-01T15:51:25.343Z,100.00
2022-10-01T15:53:55.411Z,100.00
2022-10-01T15:56:26.351Z,100.00
2022-10-01T15:59:01.021Z,100.00
2022-10-01T16:01:39.436Z,100.00
2022-10-01T16:04:14.793Z,100.00
2022-10-01T16:06:50.356Z,100.00
2022-10-01T16:09:24.951Z,100.00
2022-10-01T16:12:04.449Z,100.00
2022-10-01T16:14:44.695Z,100.00
2022-10-01T16:17:20.278Z,100.00
2022-10-01T16:19:54.871Z,100.00
2022-10-01T16:22:26.231Z,100.00
2022-10-01T16:25:08.859Z,100.00
2022-10-01T16:27:55.979Z,100.00
2022-10-01T16:30:28.052Z,100.00
2022-10-01T16:33:01.113Z,100.00
2022-10-01T16:35:33.955Z,100.00
2022-10-01T16:38:07.619Z,100.00
2022-10-01T16:40:48.930Z,100.00
2022-10-01T16:43:26.153Z,100.00
2022-10-01T16:45:55.969Z,91.61
2022-10-01T16:48:24.922Z,64.39
2022-10-01T16:50:54.723Z,79.95
2022-10-01T16:53:25.812Z,82.09
2022-10-01T16:55:59.004Z,85.40
2022-10-01T16:58:30.345Z,85.85
2022-10-01T17:00:59.768Z,87.43
2022-10-01T17:03:28.810Z,100.00
2022-10-01T17:05:58.077Z,100.00
2022-10-01T17:08:27.351Z,100.00
2022-10-01T17:11:00.908Z,100.00
2022-10-01T17:13:33.627Z,100.00
2022-10-01T17:16:03.335Z,100.00
2022-10-01T17:18:32.222Z,100.00
2022-10-01T17:21:04.851Z,100.00
2022-10-01T17:23:36.352Z,100.00
2022-10-01T17:26:10.428Z,100.00
2022-10-01T17:28:39.440Z,100.00
2022-10-01T17:31:09.287Z,100.00
2022-10-01T17:33:40.056Z,100.00
2022-10-01T17:36:10.751Z,100.00
2022-10-01T17:38:41.274Z,100.00
2022-10-01T17:41:10.446Z,100.00
2022-10-01T17:43:40.315Z,100.00
2022-10-01T17:46:09.476Z,100.00
2022-10-01T17:48:38.428Z,100.00
2022-10-01T17:51:10.708Z,100.00
2022-10-01T17:53:42.421Z,100.00
2022-10-01T17:56:16.894Z,100.00
2022-10-01T17:58:46.748Z,100.00
2022-10-01T18:01:20.591Z,100.00
2022-10-01T18:03:53.617Z,100.00
2022-10-01T18:06:24.233Z,100.00
2022-10-01T18:08:56.266Z,100.00
2022-10-01T18:11:28.897Z,100.00
2022-10-01T18:13:59.510Z,100.00
2022-10-01T18:16:29.646Z,100.00
2022-10-01T18:21:53.440Z,100.00
2022-10-01T18:24:22.723Z,100.00
2022-10-01T18:26:51.859Z,100.00
2022-10-01T18:29:24.321Z,100.00
2022-10-01T18:32:03.334Z,100.00
2022-10-01T18:34:55.571Z,100.00
2022-10-01T18:37:24.624Z,98.17
2022-10-01T18:40:23.875Z,100.00
2022-10-01T18:43:15.283Z,100.00
2022-10-01T18:45:56.518Z,100.00
2022-10-01T18:48:37.467Z,100.00
2022-10-01T18:51:41.518Z,100.00
2022-10-01T18:54:23.271Z,100.00
2022-10-01T18:57:10.834Z,100.00
2022-10-01T18:59:58.570Z,100.00
2022-10-01T19:02:56.246Z,100.00
2022-10-01T19:05:53.899Z,100.00
2022-10-01T19:08:53.724Z,100.00
2022-10-01T19:11:43.653Z,100.00
2022-10-01T19:14:27.959Z,100.00
2022-10-01T19:17:23.062Z,100.00
2022-10-01T19:20:11.893Z,100.00
2022-10-01T19:23:15.479Z,100.00
2022-10-01T19:25:57.185Z,100.00
2022-10-01T19:28:55.532Z,100.00
2022-10-01T19:31:34.897Z,100.00
2022-10-01T19:34:20.068Z,100.00
2022-10-01T19:36:57.285Z,100.00
2022-10-01T19:39:31.429Z,100.00
2022-10-01T19:42:08.028Z,100.00
2022-10-01T19:44:55.188Z,100.00
2022-10-01T19:47:33.567Z,100.00
2022-10-01T19:50:13.871Z,100.00
2022-10-01T19:52:47.105Z,100.00
2022-10-01T19:55:18.856Z,100.00
2022-10-01T19:57:49.072Z,100.00
2022-10-01T20:00:23.393Z,100.00
2022-10-01T20:03:20.404Z,100.00
2022-10-01T20:06:00.084Z,100.00
2022-10-01T20:08:48.965Z,100.00
2022-10-01T20:11:56.640Z,100.00
2022-10-01T20:15:12.594Z,100.00
2022-10-01T20:18:14.041Z,100.00
2022-10-01T20:20:49.630Z,100.00
2022-10-01T20:23:21.709Z,100.00
2022-10-01T20:26:04.621Z,100.00
2022-10-01T20:29:05.547Z,100.00
2022-10-01T20:31:45.823Z,100.00
2022-10-01T20:34:33.028Z,100.00
2022-10-01T20:37:11.280Z,100.00
2022-10-01T20:39:47.239Z,100.00
2022-10-01T20:42:34.674Z,100.00
2022-10-01T20:45:06.571Z,100.00
2022-10-01T20:47:43.719Z,100.00
2022-10-01T20:50:21.907Z,100.00
2022-10-01T20:52:58.760Z,100.00
2022-10-01T20:55:39.890Z,100.00
2022-10-01T20:58:19.565Z,100.00
2022-10-01T21:00:51.823Z,100.00
2022-10-01T21:03:27.314Z,100.00
2022-10-01T21:06:02.355Z,100.00
2022-10-01T21:08:39.250Z,100.00
2022-10-01T21:11:34.401Z,100.00
2022-10-01T21:14:15.134Z,100.00
2022-10-01T21:16:46.929Z,100.00
2022-10-01T21:19:39.972Z,100.00
2022-10-01T21:22:27.373Z,100.00
2022-10-01T21:25:20.192Z,100.00
2022-10-01T21:28:16.475Z,100.00
2022-10-01T21:31:04.109Z,100.00
2022-10-01T21:33:47.750Z,100.00
2022-10-01T21:36:52.964Z,100.00
2022-10-01T21:39:43.568Z,100.00
2022-10-01T21:42:28.056Z,100.00
2022-10-01T21:45:21.737Z,100.00
2022-10-01T21:48:00.154Z,100.00
2022-10-01T21:50:45.752Z,100.00
2022-10-01T21:53:29.023Z,100.00
2022-10-01T21:56:22.397Z,100.00
2022-10-01T21:59:30.137Z,100.00
2022-10-01T22:02:08.141Z,100.00
2022-10-01T22:04:50.630Z,100.00
2022-10-01T22:07:37.942Z,100.00
2022-10-01T22:10:39.762Z,100.00
2022-10-01T22:13:18.683Z,100.00
2022-10-01T22:15:50.120Z,100.00
2022-10-01T22:18:37.492Z,100.00
2022-10-01T22:21:12.300Z,100.00
2022-10-01T22:23:50.111Z,100.00
2022-10-01T22:26:25.444Z,100.00
2022-10-01T22:28:56.990Z,100.00
2022-10-01T22:31:32.528Z,100.00
2022-10-01T22:34:05.165Z,100.00
2022-10-01T22:37:04.656Z,100.00
2022-10-01T22:39:41.487Z,100.00
2022-10-01T22:42:32.558Z,100.00
2022-10-01T22:45:10.446Z,89.40
2022-10-01T22:48:08.859Z,92.91
2022-10-01T22:50:46.901Z,90.64
2022-10-01T22:53:38.092Z,82.65
2022-10-01T22:56:07.832Z,78.45
2022-10-01T22:58:49.966Z,81.90
2022-10-01T23:01:51.723Z,85.35
2022-10-01T23:04:32.686Z,85.23
2022-10-01T23:07:46.527Z,90.69
2022-10-01T23:10:29.373Z,89.33
2022-10-01T23:13:17.333Z,82.57
2022-10-01T23:15:58.473Z,79.96
2022-10-01T23:18:45.760Z,77.23
2022-10-01T23:21:37.757Z,83.06
2022-10-01T23:24:34.393Z,77.91
2022-10-01T23:27:50.649Z,78.56
2022-10-01T23:30:22.068Z,81.94
2022-10-01T23:33:29.331Z,75.53
2022-10-01T23:36:12.840Z,84.58
2022-10-01T23:38:58.995Z,82.62
2022-10-01T23:42:03.530Z,75.17
2022-10-01T23:44:48.894Z,73.67
2022-10-01T23:47:25.640Z,79.27
2022-10-01T23:50:00.998Z,75.53
2022-10-01T23:52:39.156Z,76.29
2022-10-01T23:55:41.230Z,73.78
2022-10-01T23:58:16.080Z,74.65
